sensor_id;sensor_type;location;lat;lon;timestamp;pressure;altitude;pressure_sealevel;temperature;humidity
77023;BME280;65952;51.440;-2.054;2023-01-04T00:00:48;99997.19;;;11.38;86.22
77023;BME280;65952;51.440;-2.054;2023-01-04T00:03:14;99995.50;;;11.37;85.84
77023;BME280;65952;51.440;-2.054;2023-01-04T00:05:39;99997.91;;;11.32;86.32
77023;BME280;65952;51.440;-2.054;2023-01-04T00:08:04;99999.88;;;11.38;85.59
77023;BME280;65952;51.440;-2.054;2023-01-04T00:10:30;100013.03;;;11.33;86.25
77023;BME280;65952;51.440;-2.054;2023-01-04T00:12:55;100005.63;;;11.35;86.12
77023;BME280;65952;51.440;-2.054;2023-01-04T00:15:21;100006.16;;;11.30;86.07
77023;BME280;65952;51.440;-2.054;2023-01-04T00:17:46;100001.06;;;11.35;85.88
77023;BME280;65952;51.440;-2.054;2023-01-04T00:20:11;99994.69;;;11.36;86.11
77023;BME280;65952;51.440;-2.054;2023-01-04T00:22:37;99990.13;;;11.37;85.53
77023;BME280;65952;51.440;-2.054;2023-01-04T00:25:02;99980.25;;;11.37;85.94
77023;BME280;65952;51.440;-2.054;2023-01-04T00:27:28;99987.16;;;11.32;85.83
77023;BME280;65952;51.440;-2.054;2023-01-04T00:29:53;99986.16;;;11.33;85.64
77023;BME280;65952;51.440;-2.054;2023-01-04T00:32:19;99976.53;;;11.38;85.89
77023;BME280;65952;51.440;-2.054;2023-01-04T00:34:44;99990.31;;;11.35;85.36
77023;BME280;65952;51.440;-2.054;2023-01-04T00:37:09;99996.72;;;11.34;85.86
77023;BME280;65952;51.440;-2.054;2023-01-04T00:39:35;99993.69;;;11.37;85.61
77023;BME280;65952;51.440;-2.054;2023-01-04T00:42:00;99992.66;;;11.38;85.64
77023;BME280;65952;51.440;-2.054;2023-01-04T00:44:33;99995.16;;;11.40;85.75
77023;BME280;65952;51.440;-2.054;2023-01-04T00:47:00;100003.75;;;11.35;85.96
77023;BME280;65952;51.440;-2.054;2023-01-04T00:49:27;100001.94;;;11.36;85.55
77023;BME280;65952;51.440;-2.054;2023-01-04T00:51:53;100008.13;;;11.36;86.11
77023;BME280;65952;51.440;-2.054;2023-01-04T00:54:19;100012.84;;;11.34;85.87
77023;BME280;65952;51.440;-2.054;2023-01-04T00:56:44;100000.44;;;11.33;86.05
77023;BME280;65952;51.440;-2.054;2023-01-04T00:59:16;100004.44;;;11.37;85.95
77023;BME280;65952;51.440;-2.054;2023-01-04T01:01:43;100005.25;;;11.38;85.64
77023;BME280;65952;51.440;-2.054;2023-01-04T01:04:11;100004.63;;;11.36;85.69
77023;BME280;65952;51.440;-2.054;2023-01-04T01:06:36;100013.22;;;11.31;85.92
77023;BME280;65952;51.440;-2.054;2023-01-04T01:09:02;99998.03;;;11.38;85.06
77023;BME280;65952;51.440;-2.054;2023-01-04T01:11:29;99992.81;;;11.37;85.57
77023;BME280;65952;51.440;-2.054;2023-01-04T01:13:55;99999.41;;;11.34;85.74
77023;BME280;65952;51.440;-2.054;2023-01-04T01:16:22;99999.34;;;11.43;85.27
77023;BME280;65952;51.440;-2.054;2023-01-04T01:18:47;99999.34;;;11.43;85.24
77023;BME280;65952;51.440;-2.054;2023-01-04T01:21:20;100002.56;;;11.38;85.48
77023;BME280;65952;51.440;-2.054;2023-01-04T01:23:46;100000.25;;;11.35;85.69
77023;BME280;65952;51.440;-2.054;2023-01-04T01:26:14;100001.38;;;11.41;85.28
77023;BME280;65952;51.440;-2.054;2023-01-04T01:28:41;99994.34;;;11.40;85.13
77023;BME280;65952;51.440;-2.054;2023-01-04T01:31:15;99996.19;;;11.39;85.52
77023;BME280;65952;51.440;-2.054;2023-01-04T01:33:42;99987.81;;;11.34;85.42
77023;BME280;65952;51.440;-2.054;2023-01-04T01:36:09;99998.69;;;11.41;85.49
77023;BME280;65952;51.440;-2.054;2023-01-04T01:38:35;99987.94;;;11.41;85.39
77023;BME280;65952;51.440;-2.054;2023-01-04T01:41:02;99978.84;;;11.42;85.17
77023;BME280;65952;51.440;-2.054;2023-01-04T01:46:11;99978.22;;;11.40;85.47
77023;BME280;65952;51.440;-2.054;2023-01-04T01:48:38;99979.88;;;11.41;85.53
77023;BME280;65952;51.440;-2.054;2023-01-04T01:51:04;99969.13;;;11.41;85.49
77023;BME280;65952;51.440;-2.054;2023-01-04T01:53:34;99964.47;;;11.34;85.86
77023;BME280;65952;51.440;-2.054;2023-01-04T01:56:03;99974.19;;;11.35;86.33
77023;BME280;65952;51.440;-2.054;2023-01-04T01:58:43;99980.28;;;11.29;86.66
77023;BME280;65952;51.440;-2.054;2023-01-04T02:01:10;99970.94;;;11.25;86.68
77023;BME280;65952;51.440;-2.054;2023-01-04T02:03:39;99957.78;;;11.30;86.49
77023;BME280;65952;51.440;-2.054;2023-01-04T02:06:09;99954.91;;;11.32;86.88
77023;BME280;65952;51.440;-2.054;2023-01-04T02:08:37;99946.50;;;11.35;86.80
77023;BME280;65952;51.440;-2.054;2023-01-04T02:11:03;99939.34;;;11.27;87.15
77023;BME280;65952;51.440;-2.054;2023-01-04T02:13:31;99946.03;;;11.31;87.20
77023;BME280;65952;51.440;-2.054;2023-01-04T02:16:35;99947.13;;;11.37;86.87
77023;BME280;65952;51.440;-2.054;2023-01-04T02:22:02;99947.59;;;11.41;87.00
77023;BME280;65952;51.440;-2.054;2023-01-04T02:27:54;99943.28;;;11.40;87.09
77023;BME280;65952;51.440;-2.054;2023-01-04T02:36:15;99934.00;;;11.42;86.79
77023;BME280;65952;51.440;-2.054;2023-01-04T02:49:41;99928.91;;;11.47;86.78
77023;BME280;65952;51.440;-2.054;2023-01-04T02:52:26;99945.06;;;11.47;86.89
77023;BME280;65952;51.440;-2.054;2023-01-04T02:54:54;99944.03;;;11.48;86.93
77023;BME280;65952;51.440;-2.054;2023-01-04T02:57:42;99941.16;;;11.50;87.16
77023;BME280;65952;51.440;-2.054;2023-01-04T03:00:23;99937.63;;;11.49;86.93
77023;BME280;65952;51.440;-2.054;2023-01-04T03:03:15;99941.78;;;11.52;86.99
77023;BME280;65952;51.440;-2.054;2023-01-04T03:09:07;99938.75;;;11.55;87.11
77023;BME280;65952;51.440;-2.054;2023-01-04T03:14:29;99934.28;;;11.47;88.14
77023;BME280;65952;51.440;-2.054;2023-01-04T03:16:59;99940.50;;;11.48;88.29
77023;BME280;65952;51.440;-2.054;2023-01-04T03:19:28;99949.66;;;11.38;88.93
77023;BME280;65952;51.440;-2.054;2023-01-04T03:22:17;99933.34;;;11.40;88.75
77023;BME280;65952;51.440;-2.054;2023-01-04T03:25:03;99933.28;;;11.48;88.86
77023;BME280;65952;51.440;-2.054;2023-01-04T03:27:50;99935.66;;;11.43;89.16
77023;BME280;65952;51.440;-2.054;2023-01-04T03:30:40;99927.91;;;11.48;88.95
77023;BME280;65952;51.440;-2.054;2023-01-04T03:33:27;99931.47;;;11.41;89.68
77023;BME280;65952;51.440;-2.054;2023-01-04T03:38:51;99918.78;;;11.34;90.02
77023;BME280;65952;51.440;-2.054;2023-01-04T03:41:48;99929.66;;;11.41;89.98
77023;BME280;65952;51.440;-2.054;2023-01-04T03:44:52;99923.25;;;11.42;89.64
77023;BME280;65952;51.440;-2.054;2023-01-04T03:47:50;99938.25;;;11.36;89.98
77023;BME280;65952;51.440;-2.054;2023-01-04T03:50:46;99925.63;;;11.37;90.06
77023;BME280;65952;51.440;-2.054;2023-01-04T03:53:14;99932.88;;;11.36;90.22
77023;BME280;65952;51.440;-2.054;2023-01-04T03:55:40;99924.16;;;11.34;90.63
77023;BME280;65952;51.440;-2.054;2023-01-04T03:58:07;99918.91;;;11.41;90.12
77023;BME280;65952;51.440;-2.054;2023-01-04T04:00:33;99936.38;;;11.37;90.14
77023;BME280;65952;51.440;-2.054;2023-01-04T04:02:58;99941.22;;;11.42;90.34
77023;BME280;65952;51.440;-2.054;2023-01-04T04:05:39;99944.75;;;11.42;90.23
77023;BME280;65952;51.440;-2.054;2023-01-04T04:08:24;99926.50;;;11.37;90.27
77023;BME280;65952;51.440;-2.054;2023-01-04T04:10:55;99930.66;;;11.40;90.27
77023;BME280;65952;51.440;-2.054;2023-01-04T04:13:22;99935.38;;;11.38;90.31
77023;BME280;65952;51.440;-2.054;2023-01-04T04:15:47;99929.38;;;11.36;90.58
77023;BME280;65952;51.440;-2.054;2023-01-04T04:18:13;99937.59;;;11.34;90.61
77023;BME280;65952;51.440;-2.054;2023-01-04T04:20:38;99941.88;;;11.44;90.54
77023;BME280;65952;51.440;-2.054;2023-01-04T04:23:04;99929.84;;;11.40;90.28
77023;BME280;65952;51.440;-2.054;2023-01-04T04:25:29;99944.94;;;11.41;90.64
77023;BME280;65952;51.440;-2.054;2023-01-04T04:27:55;99935.03;;;11.41;90.53
77023;BME280;65952;51.440;-2.054;2023-01-04T04:30:20;99934.00;;;11.42;90.39
77023;BME280;65952;51.440;-2.054;2023-01-04T04:32:46;99937.91;;;11.40;90.59
77023;BME280;65952;51.440;-2.054;2023-01-04T04:35:11;99951.25;;;11.48;90.46
77023;BME280;65952;51.440;-2.054;2023-01-04T04:37:37;99965.78;;;11.38;90.80
77023;BME280;65952;51.440;-2.054;2023-01-04T04:40:04;99958.44;;;11.32;91.08
77023;BME280;65952;51.440;-2.054;2023-01-04T04:42:29;99969.50;;;11.37;91.29
77023;BME280;65952;51.440;-2.054;2023-01-04T04:44:55;99958.44;;;11.32;91.30
77023;BME280;65952;51.440;-2.054;2023-01-04T04:47:20;99962.16;;;11.31;91.51
77023;BME280;65952;51.440;-2.054;2023-01-04T04:49:46;99965.13;;;11.36;91.06
77023;BME280;65952;51.440;-2.054;2023-01-04T04:52:11;99962.25;;;11.38;91.07
77023;BME280;65952;51.440;-2.054;2023-01-04T04:54:37;99953.00;;;11.41;90.80
77023;BME280;65952;51.440;-2.054;2023-01-04T04:57:02;99947.31;;;11.35;91.26
77023;BME280;65952;51.440;-2.054;2023-01-04T04:59:28;99952.34;;;11.38;90.92
77023;BME280;65952;51.440;-2.054;2023-01-04T05:01:53;99942.13;;;11.34;91.25
77023;BME280;65952;51.440;-2.054;2023-01-04T05:04:18;99926.84;;;11.34;91.04
77023;BME280;65952;51.440;-2.054;2023-01-04T05:06:46;99922.78;;;11.38;90.92
77023;BME280;65952;51.440;-2.054;2023-01-04T05:09:13;99924.16;;;11.34;90.91
77023;BME280;65952;51.440;-2.054;2023-01-04T05:11:38;99919.09;;;11.40;90.91
77023;BME280;65952;51.440;-2.054;2023-01-04T05:14:23;99935.84;;;11.42;90.95
77023;BME280;65952;51.440;-2.054;2023-01-04T05:16:48;99932.16;;;11.43;90.63
77023;BME280;65952;51.440;-2.054;2023-01-04T05:19:13;99939.84;;;11.46;90.98
77023;BME280;65952;51.440;-2.054;2023-01-04T05:21:39;99941.41;;;11.40;91.16
77023;BME280;65952;51.440;-2.054;2023-01-04T05:24:05;99942.91;;;11.43;91.20
77023;BME280;65952;51.440;-2.054;2023-01-04T05:26:31;99943.44;;;11.38;91.49
77023;BME280;65952;51.440;-2.054;2023-01-04T05:28:57;99942.97;;;11.34;91.70
77023;BME280;65952;51.440;-2.054;2023-01-04T05:31:23;99944.28;;;11.38;91.35
77023;BME280;65952;51.440;-2.054;2023-01-04T05:33:49;99939.75;;;11.39;91.77
77023;BME280;65952;51.440;-2.054;2023-01-04T05:36:14;99937.25;;;11.37;91.47
77023;BME280;65952;51.440;-2.054;2023-01-04T05:38:39;99929.38;;;11.36;91.56
77023;BME280;65952;51.440;-2.054;2023-01-04T05:41:05;99925.19;;;11.33;91.83
77023;BME280;65952;51.440;-2.054;2023-01-04T05:43:50;99918.44;;;11.37;91.63
77023;BME280;65952;51.440;-2.054;2023-01-04T05:46:16;99927.50;;;11.36;91.73
77023;BME280;65952;51.440;-2.054;2023-01-04T05:48:41;99933.53;;;11.38;91.38
77023;BME280;65952;51.440;-2.054;2023-01-04T05:51:06;99924.81;;;11.36;91.46
77023;BME280;65952;51.440;-2.054;2023-01-04T05:53:32;99938.91;;;11.38;91.88
77023;BME280;65952;51.440;-2.054;2023-01-04T05:55:57;99941.75;;;11.37;91.87
77023;BME280;65952;51.440;-2.054;2023-01-04T05:58:22;99941.22;;;11.42;91.75
77023;BME280;65952;51.440;-2.054;2023-01-04T06:00:48;99950.69;;;11.37;91.56
77023;BME280;65952;51.440;-2.054;2023-01-04T06:03:13;99954.47;;;11.43;91.55
77023;BME280;65952;51.440;-2.054;2023-01-04T06:05:39;99956.63;;;11.48;91.34
77023;BME280;65952;51.440;-2.054;2023-01-04T06:08:04;99956.44;;;11.49;90.99
77023;BME280;65952;51.440;-2.054;2023-01-04T06:10:30;99977.78;;;11.51;90.99
77023;BME280;65952;51.440;-2.054;2023-01-04T06:12:55;99980.63;;;11.49;90.97
77023;BME280;65952;51.440;-2.054;2023-01-04T06:15:21;99971.19;;;11.53;90.35
77023;BME280;65952;51.440;-2.054;2023-01-04T06:17:46;99982.06;;;11.60;90.28
77023;BME280;65952;51.440;-2.054;2023-01-04T06:20:12;99976.75;;;11.52;89.97
77023;BME280;65952;51.440;-2.054;2023-01-04T06:22:38;99995.03;;;11.57;89.06
77023;BME280;65952;51.440;-2.054;2023-01-04T06:25:05;99987.63;;;11.59;87.77
77023;BME280;65952;51.440;-2.054;2023-01-04T06:27:30;99993.28;;;11.64;86.74
77023;BME280;65952;51.440;-2.054;2023-01-04T06:29:56;99999.28;;;11.66;86.34
77023;BME280;65952;51.440;-2.054;2023-01-04T06:32:21;99992.25;;;11.65;86.08
77023;BME280;65952;51.440;-2.054;2023-01-04T06:34:47;100001.69;;;11.61;85.93
77023;BME280;65952;51.440;-2.054;2023-01-04T06:37:12;99986.22;;;11.63;85.20
77023;BME280;65952;51.440;-2.054;2023-01-04T06:39:38;99994.28;;;11.63;85.77
77023;BME280;65952;51.440;-2.054;2023-01-04T06:42:04;100000.22;;;11.58;85.05
77023;BME280;65952;51.440;-2.054;2023-01-04T06:44:29;100004.38;;;11.61;83.98
77023;BME280;65952;51.440;-2.054;2023-01-04T06:46:55;99990.47;;;11.57;84.42
77023;BME280;65952;51.440;-2.054;2023-01-04T06:49:20;99997.41;;;11.51;84.38
77023;BME280;65952;51.440;-2.054;2023-01-04T06:51:45;100005.69;;;11.50;83.98
77023;BME280;65952;51.440;-2.054;2023-01-04T06:54:12;99996.59;;;11.51;83.34
77023;BME280;65952;51.440;-2.054;2023-01-04T06:56:38;99999.91;;;11.53;82.75
77023;BME280;65952;51.440;-2.054;2023-01-04T06:59:04;99987.50;;;11.52;83.32
77023;BME280;65952;51.440;-2.054;2023-01-04T07:01:29;100000.66;;;11.47;82.92
77023;BME280;65952;51.440;-2.054;2023-01-04T07:03:54;100010.91;;;11.43;83.18
77023;BME280;65952;51.440;-2.054;2023-01-04T07:06:20;100008.91;;;11.45;82.99
77023;BME280;65952;51.440;-2.054;2023-01-04T07:08:45;100010.00;;;11.36;83.09
77023;BME280;65952;51.440;-2.054;2023-01-04T07:11:11;100006.94;;;11.39;83.13
77023;BME280;65952;51.440;-2.054;2023-01-04T07:13:36;100009.13;;;11.35;83.02
77023;BME280;65952;51.440;-2.054;2023-01-04T07:16:02;100011.81;;;11.35;83.51
77023;BME280;65952;51.440;-2.054;2023-01-04T07:18:27;100016.56;;;11.33;83.05
77023;BME280;65952;51.440;-2.054;2023-01-04T07:20:52;100015.38;;;11.36;82.75
77023;BME280;65952;51.440;-2.054;2023-01-04T07:23:18;100019.34;;;11.40;82.19
77023;BME280;65952;51.440;-2.054;2023-01-04T07:25:43;100016.19;;;11.36;82.40
77023;BME280;65952;51.440;-2.054;2023-01-04T07:28:09;100016.09;;;11.30;82.71
77023;BME280;65952;51.440;-2.054;2023-01-04T07:30:34;100027.31;;;11.33;82.75
77023;BME280;65952;51.440;-2.054;2023-01-04T07:33:00;100024.97;;;11.30;83.11
77023;BME280;65952;51.440;-2.054;2023-01-04T07:35:25;100023.59;;;11.34;82.21
77023;BME280;65952;51.440;-2.054;2023-01-04T07:37:51;100032.69;;;11.33;82.84
77023;BME280;65952;51.440;-2.054;2023-01-04T07:40:16;100035.38;;;11.33;82.92
77023;BME280;65952;51.440;-2.054;2023-01-04T07:42:42;100024.44;;;11.35;82.79
77023;BME280;65952;51.440;-2.054;2023-01-04T07:45:07;100023.91;;;11.40;82.30
77023;BME280;65952;51.440;-2.054;2023-01-04T07:47:33;100015.53;;;11.34;82.91
77023;BME280;65952;51.440;-2.054;2023-01-04T07:49:59;100022.75;;;11.34;82.75
77023;BME280;65952;51.440;-2.054;2023-01-04T07:52:25;100025.44;;;11.34;82.97
77023;BME280;65952;51.440;-2.054;2023-01-04T07:54:51;100023.13;;;11.31;82.57
77023;BME280;65952;51.440;-2.054;2023-01-04T07:57:16;100020.25;;;11.32;82.89
77023;BME280;65952;51.440;-2.054;2023-01-04T07:59:42;100032.31;;;11.36;83.11
77023;BME280;65952;51.440;-2.054;2023-01-04T08:02:11;100033.69;;;11.32;82.89
77023;BME280;65952;51.440;-2.054;2023-01-04T08:04:37;100041.94;;;11.31;83.70
77023;BME280;65952;51.440;-2.054;2023-01-04T08:07:03;100043.69;;;11.24;83.72
77023;BME280;65952;51.440;-2.054;2023-01-04T08:09:28;100055.97;;;11.18;84.19
77023;BME280;65952;51.440;-2.054;2023-01-04T08:11:54;100055.97;;;11.18;84.39
77023;BME280;65952;51.440;-2.054;2023-01-04T08:14:19;100069.75;;;11.15;84.38
77023;BME280;65952;51.440;-2.054;2023-01-04T08:16:45;100069.66;;;11.08;84.77
77023;BME280;65952;51.440;-2.054;2023-01-04T08:19:13;100076.50;;;11.11;83.86
77023;BME280;65952;51.440;-2.054;2023-01-04T08:21:39;100077.53;;;11.10;84.50
77023;BME280;65952;51.440;-2.054;2023-01-04T08:24:05;100071.38;;;11.24;83.16
77023;BME280;65952;51.440;-2.054;2023-01-04T08:26:31;100078.47;;;11.17;83.05
77023;BME280;65952;51.440;-2.054;2023-01-04T08:28:57;100081.63;;;11.20;82.09
77023;BME280;65952;51.440;-2.054;2023-01-04T08:31:28;100089.13;;;11.33;82.42
77023;BME280;65952;51.440;-2.054;2023-01-04T08:33:55;100087.50;;;11.24;82.04
77023;BME280;65952;51.440;-2.054;2023-01-04T08:36:25;100091.19;;;11.23;81.88
77023;BME280;65952;51.440;-2.054;2023-01-04T08:38:53;100085.66;;;11.25;81.29
77023;BME280;65952;51.440;-2.054;2023-01-04T08:41:19;100105.19;;;11.18;81.98
77023;BME280;65952;51.440;-2.054;2023-01-04T08:43:45;100096.94;;;11.20;81.56
77023;BME280;65952;51.440;-2.054;2023-01-04T08:46:12;100102.78;;;11.24;80.95
77023;BME280;65952;51.440;-2.054;2023-01-04T08:48:38;100111.03;;;11.22;80.74
77023;BME280;65952;51.440;-2.054;2023-01-04T08:51:06;100119.88;;;11.31;80.84
77023;BME280;65952;51.440;-2.054;2023-01-04T08:53:33;100118.69;;;11.33;80.63
77023;BME280;65952;51.440;-2.054;2023-01-04T08:55:59;100126.91;;;11.32;80.75
77023;BME280;65952;51.440;-2.054;2023-01-04T08:58:26;100126.91;;;11.32;80.53
77023;BME280;65952;51.440;-2.054;2023-01-04T09:00:51;100119.53;;;11.34;80.98
77023;BME280;65952;51.440;-2.054;2023-01-04T09:03:17;100127.75;;;11.32;80.63
77023;BME280;65952;51.440;-2.054;2023-01-04T09:05:42;100136.13;;;11.37;80.49
77023;BME280;65952;51.440;-2.054;2023-01-04T09:08:09;100137.44;;;11.42;80.02
77023;BME280;65952;51.440;-2.054;2023-01-04T09:10:38;100131.72;;;11.45;79.87
77023;BME280;65952;51.440;-2.054;2023-01-04T09:13:04;100129.56;;;11.40;80.48
77023;BME280;65952;51.440;-2.054;2023-01-04T09:15:31;100130.75;;;11.37;80.21
77023;BME280;65952;51.440;-2.054;2023-01-04T09:17:56;100131.75;;;11.36;80.81
77023;BME280;65952;51.440;-2.054;2023-01-04T09:20:24;100137.94;;;11.45;80.02
77023;BME280;65952;51.440;-2.054;2023-01-04T09:22:50;100127.66;;;11.49;79.65
77023;BME280;65952;51.440;-2.054;2023-01-04T09:25:15;100133.84;;;11.49;79.95
77023;BME280;65952;51.440;-2.054;2023-01-04T09:27:43;100134.22;;;11.46;79.77
77023;BME280;65952;51.440;-2.054;2023-01-04T09:30:09;100121.47;;;11.48;79.94
77023;BME280;65952;51.440;-2.054;2023-01-04T09:32:34;100133.50;;;11.52;79.40
77023;BME280;65952;51.440;-2.054;2023-01-04T09:35:00;100139.53;;;11.54;79.31
77023;BME280;65952;51.440;-2.054;2023-01-04T09:37:25;100156.44;;;11.63;78.98
77023;BME280;65952;51.440;-2.054;2023-01-04T09:39:51;100163.72;;;11.54;78.99
77023;BME280;65952;51.440;-2.054;2023-01-04T09:42:21;100163.91;;;11.53;78.75
77023;BME280;65952;51.440;-2.054;2023-01-04T09:44:56;100164.88;;;11.60;78.85
77023;BME280;65952;51.440;-2.054;2023-01-04T09:47:38;100157.28;;;11.64;78.66
77023;BME280;65952;51.440;-2.054;2023-01-04T09:50:13;100166.69;;;11.68;78.58
77023;BME280;65952;51.440;-2.054;2023-01-04T09:55:42;100162.78;;;11.70;78.14
77023;BME280;65952;51.440;-2.054;2023-01-04T09:58:31;100161.25;;;11.76;77.84
77023;BME280;65952;51.440;-2.054;2023-01-04T10:03:36;100182.63;;;11.69;77.67
77023;BME280;65952;51.440;-2.054;2023-01-04T10:06:05;100180.97;;;11.68;77.63
77023;BME280;65952;51.440;-2.054;2023-01-04T10:08:33;100175.91;;;11.74;77.71
77023;BME280;65952;51.440;-2.054;2023-01-04T10:11:18;100171.81;;;11.78;77.56
77023;BME280;65952;51.440;-2.054;2023-01-04T10:14:06;100178.31;;;11.83;77.15
77023;BME280;65952;51.440;-2.054;2023-01-04T10:25:29;100186.38;;;11.83;75.79
77023;BME280;65952;51.440;-2.054;2023-01-04T10:31:03;100192.31;;;11.79;75.60
77023;BME280;65952;51.440;-2.054;2023-01-04T10:36:19;100201.41;;;11.78;76.68
77023;BME280;65952;51.440;-2.054;2023-01-04T10:38:46;100196.69;;;11.80;75.45
77023;BME280;65952;51.440;-2.054;2023-01-04T10:41:21;100198.63;;;11.86;75.84
77023;BME280;65952;51.440;-2.054;2023-01-04T10:44:04;100212.84;;;11.80;76.02
77023;BME280;65952;51.440;-2.054;2023-01-04T10:46:44;100213.78;;;11.87;75.66
77023;BME280;65952;51.440;-2.054;2023-01-04T10:49:20;100207.09;;;11.83;75.65
77023;BME280;65952;51.440;-2.054;2023-01-04T10:51:58;100218.03;;;11.81;75.80
77023;BME280;65952;51.440;-2.054;2023-01-04T10:54:32;100215.63;;;11.86;75.84
77023;BME280;65952;51.440;-2.054;2023-01-04T10:57:08;100207.78;;;11.77;75.95
77023;BME280;65952;51.440;-2.054;2023-01-04T10:59:56;100225.44;;;11.79;75.45
77023;BME280;65952;51.440;-2.054;2023-01-04T11:05:16;100220.91;;;11.80;75.95
77023;BME280;65952;51.440;-2.054;2023-01-04T11:07:51;100241.56;;;11.79;75.25
77023;BME280;65952;51.440;-2.054;2023-01-04T11:10:30;100227.94;;;11.81;74.86
77023;BME280;65952;51.440;-2.054;2023-01-04T11:12:58;100226.63;;;11.77;75.27
77023;BME280;65952;51.440;-2.054;2023-01-04T11:15:24;100213.25;;;11.68;75.24
77023;BME280;65952;51.440;-2.054;2023-01-04T11:17:49;100225.09;;;11.82;74.75
77023;BME280;65952;51.440;-2.054;2023-01-04T11:20:16;100214.19;;;11.76;75.49
77023;BME280;65952;51.440;-2.054;2023-01-04T11:25:32;100204.22;;;11.84;74.40
77023;BME280;65952;51.440;-2.054;2023-01-04T11:28:07;100215.44;;;11.88;74.28
77023;BME280;65952;51.440;-2.054;2023-01-04T11:33:53;100218.28;;;12.18;73.18
77023;BME280;65952;51.440;-2.054;2023-01-04T11:36:40;100214.59;;;12.19;72.95
77023;BME280;65952;51.440;-2.054;2023-01-04T11:39:26;100210.88;;;12.20;72.71
77023;BME280;65952;51.440;-2.054;2023-01-04T11:42:00;100226.16;;;12.19;72.36
77023;BME280;65952;51.440;-2.054;2023-01-04T11:44:29;100213.81;;;12.10;73.59
77023;BME280;65952;51.440;-2.054;2023-01-04T11:49:35;100212.91;;;12.18;73.18
77023;BME280;65952;51.440;-2.054;2023-01-04T11:52:02;100198.44;;;12.19;72.92
77023;BME280;65952;51.440;-2.054;2023-01-04T11:54:28;100197.72;;;12.25;72.78
77023;BME280;65952;51.440;-2.054;2023-01-04T11:57:06;100182.09;;;12.21;72.54
77023;BME280;65952;51.440;-2.054;2023-01-04T11:59:41;100193.63;;;12.29;72.83
77023;BME280;65952;51.440;-2.054;2023-01-04T12:04:42;100198.50;;;12.11;72.61
77023;BME280;65952;51.440;-2.054;2023-01-04T12:09:50;100207.28;;;12.05;72.55
77023;BME280;65952;51.440;-2.054;2023-01-04T12:12:16;100220.50;;;11.91;73.15
77023;BME280;65952;51.440;-2.054;2023-01-04T12:14:48;100228.78;;;11.81;74.05
77023;BME280;65952;51.440;-2.054;2023-01-04T12:20:14;100215.94;;;11.68;74.17
77023;BME280;65952;51.440;-2.054;2023-01-04T12:22:40;100241.19;;;11.59;75.24
77023;BME280;65952;51.440;-2.054;2023-01-04T12:25:49;100248.44;;;11.50;76.11
77023;BME280;65952;51.440;-2.054;2023-01-04T12:28:34;100242.00;;;11.28;77.30
77023;BME280;65952;51.440;-2.054;2023-01-04T12:33:45;100249.34;;;10.95;77.88
77023;BME280;65952;51.440;-2.054;2023-01-04T12:36:12;100242.78;;;10.97;78.14
77023;BME280;65952;51.440;-2.054;2023-01-04T12:49:59;100251.41;;;11.24;77.00
77023;BME280;65952;51.440;-2.054;2023-01-04T12:55:03;100236.78;;;11.27;77.05
77023;BME280;65952;51.440;-2.054;2023-01-04T12:57:34;100243.66;;;11.29;76.12
77023;BME280;65952;51.440;-2.054;2023-01-04T13:00:13;100232.91;;;11.37;76.09
77023;BME280;65952;51.440;-2.054;2023-01-04T13:02:42;100240.25;;;11.44;76.03
77023;BME280;65952;51.440;-2.054;2023-01-04T13:15:48;100217.88;;;11.75;74.56
77023;BME280;65952;51.440;-2.054;2023-01-04T13:20:54;100222.56;;;11.81;74.00
77023;BME280;65952;51.440;-2.054;2023-01-04T13:23:21;100241.88;;;11.84;73.28
77023;BME280;65952;51.440;-2.054;2023-01-04T13:25:48;100234.28;;;11.88;72.68
77023;BME280;65952;51.440;-2.054;2023-01-04T13:28:17;100242.06;;;11.83;73.10
77023;BME280;65952;51.440;-2.054;2023-01-04T13:30:44;100236.31;;;11.86;72.44
77023;BME280;65952;51.440;-2.054;2023-01-04T13:33:16;100236.25;;;11.94;72.41
77023;BME280;65952;51.440;-2.054;2023-01-04T13:35:44;100227.03;;;11.97;72.49
77023;BME280;65952;51.440;-2.054;2023-01-04T13:38:20;100228.69;;;11.98;71.84
77023;BME280;65952;51.440;-2.054;2023-01-04T13:40:46;100232.56;;;11.95;71.55
77023;BME280;65952;51.440;-2.054;2023-01-04T13:48:25;100239.56;;;12.05;70.55
77023;BME280;65952;51.440;-2.054;2023-01-04T13:51:44;100230.72;;;12.19;68.73
77023;BME280;65952;51.440;-2.054;2023-01-04T13:53:58;100218.09;;;12.19;69.16
77023;BME280;65952;51.440;-2.054;2023-01-04T13:56:26;100229.78;;;12.12;69.48
77023;BME280;65952;51.440;-2.054;2023-01-04T13:58:52;100233.91;;;11.99;70.38
77023;BME280;65952;51.440;-2.054;2023-01-04T14:01:32;100238.78;;;11.96;70.40
77023;BME280;65952;51.440;-2.054;2023-01-04T14:04:26;100224.03;;;11.83;71.16
77023;BME280;65952;51.440;-2.054;2023-01-04T14:06:53;100224.53;;;11.87;71.00
77023;BME280;65952;51.440;-2.054;2023-01-04T14:09:37;100224.22;;;11.82;70.82
77023;BME280;65952;51.440;-2.054;2023-01-04T14:12:13;100222.94;;;11.78;71.17
77023;BME280;65952;51.440;-2.054;2023-01-04T14:14:54;100210.47;;;11.77;71.11
77023;BME280;65952;51.440;-2.054;2023-01-04T14:17:32;100209.19;;;11.73;71.31
77023;BME280;65952;51.440;-2.054;2023-01-04T14:25:40;100229.91;;;11.64;72.36
77023;BME280;65952;51.440;-2.054;2023-01-04T14:38:44;100257.75;;;11.40;72.84
77023;BME280;65952;51.440;-2.054;2023-01-04T14:41:33;100265.97;;;11.38;73.23
77023;BME280;65952;51.440;-2.054;2023-01-04T14:46:26;100290.16;;;11.38;73.82
77023;BME280;65952;51.440;-2.054;2023-01-04T14:48:52;100272.72;;;11.34;73.29
77023;BME280;65952;51.440;-2.054;2023-01-04T14:51:20;100273.22;;;11.29;74.31
77023;BME280;65952;51.440;-2.054;2023-01-04T14:53:47;100273.41;;;11.28;74.23
77023;BME280;65952;51.440;-2.054;2023-01-04T14:56:15;100290.22;;;11.30;73.83
77023;BME280;65952;51.440;-2.054;2023-01-04T14:58:41;100286.97;;;11.34;73.78
77023;BME280;65952;51.440;-2.054;2023-01-04T15:01:07;100301.59;;;11.32;73.84
77023;BME280;65952;51.440;-2.054;2023-01-04T15:03:33;100297.25;;;11.31;73.97
77023;BME280;65952;51.440;-2.054;2023-01-04T15:05:59;100315.41;;;11.29;74.02